Time;durP1;ratioP1;P1;durP2;ratioP2;P2;SDS_P1;SDS_P2;PMS_P1;PMS_P2;Temp;Humidity;BMP_temperature;BMP_pressure;BME280_temperature;BME280_humidity;BME280_pressure;Samples;Min_cycle;Max_cycle;Signal;HPM_P1;HPM_P2
2020/12/02 00:00:32;;;;;;;308.87;163.33;;;;;;;-5.34;79.27;99705.23;124820;1101;65242;-81
2020/12/02 00:03:33;;;;;;;318.40;161.20;;;;;;;-5.39;79.24;99713.84;124794;1101;65198;-81
2020/12/02 00:06:01;;;;;;;334.97;173.50;;;;;;;-5.43;79.32;99706.87;124803;1102;65217;-82
2020/12/02 00:08:38;;;;;;;328.35;173.65;;;;;;;-5.45;79.61;99700.78;124751;1101;65258;-81
2020/12/02 00:11:09;;;;;;;331.33;168.33;;;;;;;-5.47;79.80;99702.52;124752;1102;65332;-81
2020/12/02 00:13:42;;;;;;;328.05;166.45;;;;;;;-5.41;80.05;99705.16;124793;1101;65168;-81
2020/12/02 00:16:10;;;;;;;305.00;160.73;;;;;;;-5.39;79.25;99703.45;124766;1101;65601;-81
2020/12/02 00:18:39;;;;;;;312.80;163.07;;;;;;;-5.43;79.33;99705.13;124792;1102;65143;-81
2020/12/02 00:21:06;;;;;;;300.77;156.37;;;;;;;-5.51;79.81;99706.80;124860;1101;65083;-81
2020/12/02 00:23:32;;;;;;;303.17;155.87;;;;;;;-5.59;78.93;99708.45;124743;1101;65644;-81
2020/12/02 00:25:59;;;;;;;297.65;155.40;;;;;;;-5.61;79.53;99707.56;124751;1101;65210;-81
2020/12/02 00:28:26;;;;;;;317.20;160.97;;;;;;;-5.71;79.55;99709.22;124776;1101;65184;-82
2020/12/02 00:30:53;;;;;;;318.27;163.67;;;;;;;-5.66;79.99;99715.33;124801;1101;65269;-82
2020/12/02 00:33:25;;;;;;;310.33;155.87;;;;;;;-5.57;79.79;99707.61;124824;1102;65104;-82
2020/12/02 00:35:53;;;;;;;299.87;160.30;;;;;;;-5.65;80.13;99709.27;124748;1102;65361;-80
2020/12/02 00:38:20;;;;;;;318.93;166.13;;;;;;;-5.58;79.78;99705.89;124830;1102;65188;-81
2020/12/02 00:40:48;;;;;;;358.90;197.00;;;;;;;-5.47;80.48;99705.98;124788;1101;65252;-81
2020/12/02 00:43:18;;;;;;;349.73;183.63;;;;;;;-5.47;80.18;99705.98;124783;1102;65236;-81
2020/12/02 00:45:45;;;;;;;437.03;252.50;;;;;;;-5.48;80.21;99703.36;124788;1101;65195;-80
2020/12/02 00:48:17;;;;;;;365.67;202.20;;;;;;;-5.40;79.96;99704.30;124806;1101;65185;-81
2020/12/02 00:50:43;;;;;;;391.17;219.30;;;;;;;-5.38;80.44;99710.38;124878;1102;65226;-81
2020/12/02 00:53:19;;;;;;;361.10;204.00;;;;;;;-5.40;79.88;99710.34;124758;1101;65216;-81
2020/12/02 00:55:47;;;;;;;354.17;187.23;;;;;;;-5.43;79.40;99712.06;124803;1102;65255;-81
2020/12/02 00:59:06;;;;;;;365.83;193.00;;;;;;;-5.41;79.19;99711.22;124859;1101;65159;-81
2020/12/02 01:01:48;;;;;;;377.67;203.17;;;;;;;-5.51;79.03;99707.66;124592;1102;65380;-81
2020/12/02 01:04:18;;;;;;;391.15;211.30;;;;;;;-5.61;79.35;99710.16;124819;1101;65207;-81
2020/12/02 01:06:47;;;;;;;391.55;206.40;;;;;;;-5.68;79.50;99711.84;124808;1102;65150;-81
2020/12/02 01:09:15;;;;;;;391.60;215.68;;;;;;;-5.75;79.38;99710.89;124794;1101;65191;-82
2020/12/02 01:11:44;;;;;;;379.03;207.67;;;;;;;-5.82;79.16;99718.60;124774;1101;65102;-81
2020/12/02 01:14:15;;;;;;;359.07;202.20;;;;;;;-5.90;79.85;99715.92;124787;1102;65246;-81
2020/12/02 01:16:47;;;;;;;373.30;203.50;;;;;;;-5.93;79.16;99713.30;124761;1101;65143;-81
2020/12/02 01:19:17;;;;;;;371.30;201.17;;;;;;;-5.96;79.36;99721.95;124780;1102;65150;-81
2020/12/02 01:22:05;;;;;;;376.07;198.53;;;;;;;-6.03;79.63;99717.57;124821;1102;65187;-80
2020/12/02 01:25:05;;;;;;;375.37;202.37;;;;;;;-6.07;79.81;99718.37;124807;1101;65150;-80
2020/12/02 01:27:43;;;;;;;380.10;204.63;;;;;;;-6.09;79.74;99714.02;124760;1101;65344;-81
2020/12/02 01:30:13;;;;;;;372.63;201.40;;;;;;;-6.03;79.77;99714.08;124850;1102;65236;-82
2020/12/02 01:32:44;;;;;;;386.80;206.55;;;;;;;-6.05;79.06;99710.63;124914;1101;65281;-81
2020/12/02 01:35:13;;;;;;;391.85;213.80;;;;;;;-6.22;79.65;99718.19;124759;1101;65230;-82
2020/12/02 01:37:41;;;;;;;;;;;;;;;-6.30;79.21;99712.91;124911;1101;65240;-81
2020/12/02 01:40:23;;;;;;;409.30;212.75;;;;;;;-6.30;80.03;99707.72;124736;1101;65130;-81
2020/12/02 01:42:55;;;;;;;406.73;213.03;;;;;;;-6.32;79.84;99711.14;124809;1102;65160;-80
2020/12/02 01:45:31;;;;;;;408.47;221.40;;;;;;;-6.32;80.50;99712.00;124791;1102;65249;-80
2020/12/02 01:48:31;;;;;;;408.27;221.10;;;;;;;-6.41;80.28;99711.91;124815;1102;65227;-80
2020/12/02 01:51:02;;;;;;;417.50;219.30;;;;;;;-6.48;80.36;99713.53;124791;1101;65157;-81
2020/12/02 01:53:55;;;;;;;422.57;225.30;;;;;;;-6.50;80.84;99711.77;124755;1101;65688;-81
2020/12/02 01:56:41;;;;;;;402.55;211.15;;;;;;;-6.48;81.09;99707.48;124795;1102;65195;-81
2020/12/02 01:59:10;;;;;;;385.05;206.00;;;;;;;-6.27;81.43;99705.16;124761;1101;65246;-82
2020/12/02 02:01:51;;;;;;;390.73;210.97;;;;;;;-6.16;81.06;99707.91;124841;1101;65140;-81
2020/12/02 02:04:22;;;;;;;379.20;204.10;;;;;;;-6.12;80.42;99701.02;124849;1101;65186;-81
2020/12/02 02:07:04;;;;;;;374.77;200.80;;;;;;;-6.15;80.13;99708.77;124768;1101;65398;-81
2020/12/02 02:09:31;;;;;;;376.33;203.33;;;;;;;-6.17;80.15;99708.73;124891;1101;65163;-81
2020/12/02 02:12:22;;;;;;;363.97;201.93;;;;;;;-6.21;80.25;99707.84;124771;1101;66116;-81
2020/12/02 02:15:15;;;;;;;365.85;199.05;;;;;;;-6.13;80.31;99705.34;124825;1102;65134;-81
2020/12/02 02:17:42;;;;;;;354.37;191.27;;;;;;;-6.11;79.97;99693.23;124789;1101;65256;-81
2020/12/02 02:20:10;;;;;;;375.63;199.27;;;;;;;-6.19;79.26;99706.14;124766;1101;65194;-81
2020/12/02 02:22:36;;;;;;;373.95;202.85;;;;;;;-6.21;80.30;99705.25;124787;1101;65191;-81
2020/12/02 02:25:06;;;;;;;375.50;200.40;;;;;;;-6.24;80.07;99706.91;124827;1101;65659;-81
2020/12/02 02:27:32;;;;;;;366.27;198.70;;;;;;;-6.33;79.81;99706.82;124773;1101;65211;-82
2020/12/02 02:29:59;;;;;;;346.77;188.10;;;;;;;-6.37;80.16;99705.92;124740;1102;65134;-80
2020/12/02 02:32:29;;;;;;;356.50;183.10;;;;;;;-6.35;80.12;99708.52;124830;1101;65323;-80
2020/12/02 02:34:57;;;;;;;336.12;176.40;;;;;;;-6.33;80.45;99706.82;124829;1101;65142;-81
2020/12/02 02:37:29;;;;;;;348.00;187.27;;;;;;;-6.28;80.26;99702.56;124900;1101;65094;-80
2020/12/02 02:39:57;;;;;;;355.13;193.97;;;;;;;-6.29;80.19;99696.51;124739;1101;65147;-81
2020/12/02 02:42:35;;;;;;;343.67;188.13;;;;;;;-6.33;80.15;99702.50;124732;1101;65246;-80
2020/12/02 02:45:17;;;;;;;336.57;183.57;;;;;;;-6.35;79.79;99705.92;124808;1101;65236;-81
2020/12/02 02:47:44;;;;;;;341.87;185.77;;;;;;;-6.37;79.79;99705.02;124799;1101;65169;-80
2020/12/02 02:50:15;;;;;;;327.15;177.30;;;;;;;-6.38;80.11;99700.70;124771;1101;65153;-81
2020/12/02 02:52:43;;;;;;;357.70;188.37;;;;;;;-6.37;80.12;99705.92;124743;1101;65130;-81
2020/12/02 02:55:15;;;;;;;332.17;179.83;;;;;;;-6.34;79.77;99700.77;124798;1101;65178;-82
2020/12/02 02:57:42;;;;;;;285.80;154.63;;;;;;;-6.33;80.49;99694.72;124740;1101;65384;-79
2020/12/02 03:00:31;;;;;;;256.25;146.15;;;;;;;-6.24;80.25;99688.76;124791;1101;65143;-81
2020/12/02 03:02:57;;;;;;;228.37;130.37;;;;;;;-6.15;80.58;99690.61;124767;1101;65162;-81
2020/12/02 03:05:25;;;;;;;224.00;126.33;;;;;;;-6.07;80.80;99692.42;124777;1101;65256;-82
2020/12/02 03:07:57;;;;;;;237.60;140.57;;;;;;;-6.06;80.23;99690.70;124785;1101;65165;-81
2020/12/02 03:10:27;;;;;;;204.10;112.87;;;;;;;-6.01;80.67;99700.27;124872;1101;65156;-81
2020/12/02 03:12:57;;;;;;;185.07;103.40;;;;;;;-5.96;80.81;99696.00;124873;1101;65634;-80
2020/12/02 03:15:24;;;;;;;182.03;106.37;;;;;;;-5.93;80.89;99699.49;124725;1101;65230;-81
2020/12/02 03:17:52;;;;;;;170.40;100.17;;;;;;;-5.86;81.08;99699.54;124859;1102;65163;-81
2020/12/02 03:20:24;;;;;;;159.97;95.07;;;;;;;-5.85;81.25;99700.41;124758;1101;65640;-81
2020/12/02 03:22:50;;;;;;;173.30;97.20;;;;;;;-5.85;81.13;99700.41;124759;1102;65160;-81
2020/12/02 03:25:25;;;;;;;165.27;92.37;;;;;;;-5.83;80.75;99707.35;124815;1101;65220;-81
2020/12/02 03:27:51;;;;;;;153.63;88.20;;;;;;;-5.85;81.36;99705.59;124754;1102;65147;-82
2020/12/02 03:30:18;;;;;;;162.57;91.47;;;;;;;-5.86;80.98;99707.33;124772;1101;65157;-81
2020/12/02 03:32:45;;;;;;;152.83;88.07;;;;;;;-5.85;81.65;99705.59;124840;1101;65495;-80
2020/12/02 03:35:11;;;;;;;161.30;87.90;;;;;;;-5.84;81.59;99708.22;124762;1101;65252;-81
2020/12/02 03:37:38;;;;;;;161.80;88.43;;;;;;;-5.81;81.58;99708.25;124781;1101;65642;-82
2020/12/02 03:40:06;;;;;;;153.83;87.83;;;;;;;-5.72;81.73;99711.78;124761;1101;65162;-81
2020/12/02 03:42:32;;;;;;;148.50;85.65;;;;;;;-5.65;82.05;99704.08;124735;1101;65331;-82
2020/12/02 03:44:59;;;;;;;152.07;86.57;;;;;;;-5.59;81.49;99709.31;124746;1101;65140;-81
2020/12/02 03:47:27;;;;;;;161.97;88.60;;;;;;;-5.51;81.64;99704.20;124780;1101;65269;-80
2020/12/02 03:49:53;;;;;;;159.90;88.57;;;;;;;-5.40;82.27;99706.89;124795;1101;65185;-81
2020/12/02 03:52:19;;;;;;;158.10;85.20;;;;;;;-5.28;81.87;99709.60;124780;1101;65155;-80
2020/12/02 03:54:46;;;;;;;136.80;81.30;;;;;;;-5.24;81.49;99705.29;124808;1103;65201;-82
2020/12/02 03:57:12;;;;;;;139.40;78.50;;;;;;;-5.27;81.67;99706.13;124762;1101;65140;-81
2020/12/02 03:59:39;;;;;;;141.17;80.50;;;;;;;-5.25;82.39;99707.02;124710;1101;65198;-81
2020/12/02 04:02:05;;;;;;;135.73;76.90;;;;;;;-5.22;81.77;99698.38;124807;1101;65136;-81
2020/12/02 04:04:31;;;;;;;139.47;80.60;;;;;;;-5.20;82.38;99694.94;124794;1101;65253;-81
2020/12/02 04:06:58;;;;;;;143.53;80.23;;;;;;;-5.17;81.96;99696.69;124757;1102;65156;-82
2020/12/02 04:09:24;;;;;;;127.40;73.93;;;;;;;-5.12;82.55;99698.46;124700;1101;65141;-82
2020/12/02 04:11:51;;;;;;;136.17;77.97;;;;;;;-5.10;81.72;99701.95;124647;1101;65220;-82
2020/12/02 04:14:17;;;;;;;146.17;78.03;;;;;;;-5.03;82.61;99699.39;124649;1102;65089;-80
2020/12/02 04:16:44;;;;;;;140.70;78.20;;;;;;;-5.03;82.28;99701.98;124561;1101;65204;-81
2020/12/02 04:19:10;;;;;;;131.00;71.20;;;;;;;-5.04;82.80;99695.92;124783;1102;65527;-81
2020/12/02 04:21:37;;;;;;;131.30;67.83;;;;;;;-5.05;82.34;99696.80;124668;1101;65243;-82
2020/12/02 04:24:03;;;;;;;124.63;66.10;;;;;;;-4.98;82.12;99702.89;124743;1101;65153;-79
2020/12/02 04:26:29;;;;;;;131.63;74.60;;;;;;;-4.89;82.82;99705.56;124763;1101;65201;-79
2020/12/02 04:28:56;;;;;;;133.87;77.50;;;;;;;-4.81;83.03;99705.63;124712;1101;65101;-82
2020/12/02 04:31:22;;;;;;;131.80;77.05;;;;;;;-4.73;82.25;99702.20;124783;1102;65159;-79
2020/12/02 04:33:49;;;;;;;132.57;71.10;;;;;;;-4.66;82.91;99703.09;124772;1101;65169;-81
2020/12/02 04:36:15;;;;;;;131.20;69.70;;;;;;;-4.58;83.03;99705.73;124787;1102;65326;-82
2020/12/02 04:38:42;;;;;;;126.23;69.90;;;;;;;-4.60;82.07;99710.08;124765;1101;65157;-81
2020/12/02 04:41:12;;;;;;;116.60;62.07;;;;;;;-4.62;83.15;99712.66;124800;1101;65214;-80
2020/12/02 04:43:42;;;;;;;109.70;57.50;;;;;;;-4.71;82.73;99712.63;124877;1102;65245;-81
2020/12/02 04:46:20;;;;;;;120.05;63.90;;;;;;;-4.81;83.02;99713.42;124789;1101;65157;-81
2020/12/02 04:48:52;;;;;;;120.77;65.17;;;;;;;-4.87;83.00;99712.52;124748;1102;65249;-81
2020/12/02 04:51:20;;;;;;;121.20;63.53;;;;;;;-4.91;83.30;99717.67;124897;1101;65236;-80
2020/12/02 04:53:50;;;;;;;129.53;69.60;;;;;;;-4.90;83.39;99715.10;124818;1101;65146;-80
2020/12/02 04:56:17;;;;;;;124.30;66.97;;;;;;;-4.85;82.69;99715.97;124766;1101;65166;-81
2020/12/02 04:58:47;;;;;;;120.87;67.33;;;;;;;-4.82;83.50;99717.72;124781;1102;66363;-81
2020/12/02 05:01:17;;;;;;;;;;;;;;;-4.82;82.94;99712.52;124818;1101;65299;-82
2020/12/02 05:03:57;;;;;;;119.28;59.70;;;;;;;-4.87;83.59;99712.52;124803;1101;65247;-82
2020/12/02 05:06:30;;;;;;;116.33;59.93;;;;;;;-4.95;83.67;99714.20;124696;1101;65605;-82
2020/12/02 05:09:13;;;;;;;120.03;62.40;;;;;;;-4.96;83.57;99725.44;124817;1101;65162;-82
2020/12/02 05:11:41;;;;;;;121.00;64.23;;;;;;;-4.96;83.20;99725.44;124756;1102;65298;-83
2020/12/02 05:14:14;;;;;;;126.50;63.83;;;;;;;-4.94;83.72;99723.72;124822;1101;65156;-82
2020/12/02 05:16:41;;;;;;;134.13;67.80;;;;;;;-4.91;83.93;99731.54;124812;1101;65143;-82
2020/12/02 05:19:25;;;;;;;128.00;65.87;;;;;;;-4.88;83.24;99722.89;124780;1101;65166;-81
2020/12/02 05:22:09;;;;;;;109.33;57.70;;;;;;;-4.82;83.74;99724.66;124843;1102;65247;-81
2020/12/02 05:24:50;;;;;;;111.83;56.47;;;;;;;-4.82;84.15;99719.46;124847;1101;65217;-81
2020/12/02 05:27:20;;;;;;;101.77;55.47;;;;;;;-4.81;83.95;99718.63;124853;1102;65195;-82
2020/12/02 05:30:02;;;;;;;116.37;58.03;;;;;;;-4.78;83.96;99722.10;124854;1101;65178;-83
2020/12/02 05:32:30;;;;;;;104.20;54.93;;;;;;;-4.77;83.54;99722.96;124868;1102;65249;-81
2020/12/02 05:34:56;;;;;;;113.50;56.07;;;;;;;-4.77;83.54;99723.83;124808;1101;65185;-82
2020/12/02 05:37:37;;;;;;;106.90;57.60;;;;;;;-4.75;83.48;99719.52;124766;1101;65205;-82
2020/12/02 05:40:09;;;;;;;107.20;56.20;;;;;;;-4.66;84.23;99722.19;124835;1101;65342;-81
2020/12/02 05:42:42;;;;;;;114.27;57.23;;;;;;;-4.62;83.93;99715.27;124850;1101;65179;-81
2020/12/02 05:45:18;;;;;;;115.07;56.20;;;;;;;-4.63;83.97;99718.73;124822;1101;65248;-81
2020/12/02 05:47:50;;;;;;;103.77;53.63;;;;;;;-4.64;83.80;99722.17;124816;1102;65156;-82
2020/12/02 05:50:17;;;;;;;107.97;55.50;;;;;;;-4.67;84.35;99716.97;124777;1101;65136;-81
2020/12/02 05:52:46;;;;;;;112.85;55.80;;;;;;;-4.69;84.31;99716.94;124848;1101;65268;-81
2020/12/02 05:55:26;;;;;;;103.17;50.93;;;;;;;-4.66;83.95;99719.59;124828;1101;65275;-82
2020/12/02 05:58:08;;;;;;;92.90;46.37;;;;;;;-4.69;84.74;99731.68;124740;1102;65153;-82
2020/12/02 06:00:35;;;;;;;100.70;50.80;;;;;;;-4.72;84.23;99727.33;124775;1101;65567;-81
2020/12/02 06:03:04;;;;;;;104.87;50.97;;;;;;;-4.74;84.42;99726.47;124785;1101;65190;-81
2020/12/02 06:05:31;;;;;;;99.60;49.70;;;;;;;-4.73;84.56;99725.59;124800;1102;65109;-81
2020/12/02 06:08:01;;;;;;;101.87;50.37;;;;;;;-4.72;83.85;99727.33;124790;1102;65156;-81
2020/12/02 06:10:53;;;;;;;;;;;;;;;-4.66;83.83;99723.89;124786;1101;65243;-81
2020/12/02 06:13:38;;;;;;;106.67;49.43;;;;;;;-4.64;84.27;99720.44;124692;1101;65153;-80
2020/12/02 06:16:05;;;;;;;99.65;48.90;;;;;;;-4.64;83.70;99710.04;124846;1101;65146;-80
2020/12/02 06:18:39;;;;;;;94.07;49.23;;;;;;;-4.60;84.16;99716.14;124715;1101;65159;-81
2020/12/02 06:21:40;;;;;;;100.53;49.60;;;;;;;-4.60;84.57;99715.28;124878;1101;65149;-80
2020/12/02 06:24:11;;;;;;;92.40;46.00;;;;;;;-4.60;84.59;99721.35;124812;1101;65192;-80
2020/12/02 06:26:44;;;;;;;96.50;46.27;;;;;;;-4.59;83.76;99720.48;124840;1101;65259;-82
2020/12/02 06:29:29;;;;;;;90.65;47.20;;;;;;;-4.62;83.85;99720.47;124846;1101;65280;-82
2020/12/02 06:32:00;;;;;;;91.20;45.87;;;;;;;-4.60;84.02;99712.69;124788;1101;65396;-81
2020/12/02 06:34:29;;;;;;;95.73;48.53;;;;;;;-4.62;84.55;99711.80;124773;1101;65150;-80
2020/12/02 06:37:13;;;;;;;91.78;47.35;;;;;;;-4.62;84.38;99706.59;124875;1101;65157;-81
2020/12/02 06:39:46;;;;;;;84.47;44.23;;;;;;;-4.65;84.61;99710.91;124786;1101;65179;-82
2020/12/02 06:42:35;;;;;;;116.77;60.30;;;;;;;-4.68;83.77;99717.84;124585;1103;65130;-81
2020/12/02 06:45:11;;;;;;;101.93;48.60;;;;;;;-4.68;84.16;99716.10;124746;1101;65166;-81
2020/12/02 06:47:57;;;;;;;87.10;45.53;;;;;;;-4.65;84.21;99715.25;124864;1101;65105;-83
2020/12/02 06:50:30;;;;;;;91.03;47.13;;;;;;;-4.65;83.92;99718.72;124755;1101;65162;-82
2020/12/02 06:53:15;;;;;;;92.27;47.33;;;;;;;-4.57;84.35;99718.77;124801;1101;65227;-82
2020/12/02 06:55:45;;;;;;;99.17;46.30;;;;;;;-4.48;84.75;99713.59;124802;1101;65161;-81
2020/12/02 06:58:15;;;;;;;98.07;46.37;;;;;;;-4.44;84.77;99715.36;124533;1101;65198;-80
2020/12/02 07:00:51;;;;;;;90.67;47.23;;;;;;;-4.48;84.25;99716.20;124818;1101;65199;-81
2020/12/02 07:03:37;;;;;;;94.10;44.90;;;;;;;-4.48;84.32;99713.59;124854;1101;65140;-81
2020/12/02 07:06:20;;;;;;;87.95;45.70;;;;;;;-4.47;84.08;99712.75;124798;1102;65143;-81
2020/12/02 07:08:57;;;;;;;93.17;46.93;;;;;;;-4.47;84.02;99715.35;124871;1102;65086;-82
2020/12/02 07:11:24;;;;;;;91.63;46.27;;;;;;;-4.46;84.77;99716.22;124811;1101;65203;-81
2020/12/02 07:13:53;;;;;;;90.80;45.97;;;;;;;-4.41;84.62;99706.70;124720;1101;65192;-82
2020/12/02 07:16:22;;;;;;;96.10;46.17;;;;;;;-4.36;84.86;99719.74;124778;1101;65153;-81
2020/12/02 07:19:07;;;;;;;104.63;51.85;;;;;;;-4.33;85.18;99714.55;124803;1102;65261;-81
2020/12/02 07:21:53;;;;;;;108.07;53.63;;;;;;;-4.28;84.35;99712.84;124834;1101;65139;-82
2020/12/02 07:24:24;;;;;;;99.03;49.07;;;;;;;-4.19;84.44;99720.67;124752;1102;65310;-81
2020/12/02 07:26:53;;;;;;;96.80;50.00;;;;;;;-4.12;84.77;99709.42;124806;1101;65147;-81
2020/12/02 07:29:24;;;;;;;93.97;46.80;;;;;;;-4.07;84.82;99717.27;124848;1101;65163;-82
2020/12/02 07:32:04;;;;;;;96.30;51.10;;;;;;;-4.02;84.85;99713.80;124792;1103;65245;-81
2020/12/02 07:34:34;;;;;;;90.37;46.17;;;;;;;-3.97;84.82;99713.83;124745;1101;65633;-82
2020/12/02 07:37:17;;;;;;;92.10;47.93;;;;;;;-3.94;84.19;99711.23;124673;1103;65159;-82
2020/12/02 07:40:05;;;;;;;93.87;48.83;;;;;;;-3.94;83.92;99711.23;124810;1102;65250;-82
2020/12/02 07:42:37;;;;;;;98.67;49.37;;;;;;;-3.93;84.27;99710.35;124729;1101;65083;-82
2020/12/02 07:45:14;;;;;;;98.65;51.35;;;;;;;-3.91;84.01;99708.62;124841;1101;65156;-80
2020/12/02 07:48:13;;;;;;;89.35;47.95;;;;;;;-3.89;84.32;99711.25;124829;1101;65133;-81
2020/12/02 07:51:05;;;;;;;89.37;44.87;;;;;;;-3.86;84.52;99701.70;124756;1101;65290;-80
2020/12/02 07:53:31;;;;;;;91.77;47.23;;;;;;;-3.84;84.42;99701.72;124872;1101;65158;-81
2020/12/02 07:55:59;;;;;;;94.50;52.43;;;;;;;-3.79;84.55;99697.36;124818;1101;65147;-80
2020/12/02 07:58:34;;;;;;;109.00;56.45;;;;;;;-3.70;84.13;99692.19;124841;1102;65148;-82
2020/12/02 08:01:16;;;;;;;111.57;63.33;;;;;;;-3.62;83.67;99695.67;124795;1102;65211;-82
2020/12/02 08:03:43;;;;;;;118.37;65.93;;;;;;;-3.58;84.39;99692.22;124934;1101;65130;-81
2020/12/02 08:06:10;;;;;;;107.70;59.67;;;;;;;-3.56;84.42;99693.06;124837;1101;65143;-80
2020/12/02 08:08:36;;;;;;;94.60;54.50;;;;;;;-3.55;83.47;99689.61;124844;1101;65135;-80
2020/12/02 08:11:02;;;;;;;90.65;48.25;;;;;;;-3.52;84.23;99690.48;124841;1102;65160;-81
2020/12/02 08:13:29;;;;;;;86.90;46.23;;;;;;;-3.59;84.07;99689.59;124843;1102;65093;-80
2020/12/02 08:15:58;;;;;;;84.03;47.93;;;;;;;-3.66;84.04;99693.95;124850;1102;65313;-80
2020/12/02 08:18:27;;;;;;;83.07;44.70;;;;;;;-3.67;84.16;99693.92;124793;1101;65134;-81
2020/12/02 08:21:05;;;;;;;81.65;46.45;;;;;;;-3.75;83.67;99697.38;124823;1102;65137;-81
2020/12/02 08:23:35;;;;;;;85.40;46.75;;;;;;;-3.80;83.79;99691.29;124812;1101;65213;-81
2020/12/02 08:26:23;;;;;;;79.63;44.63;;;;;;;-3.80;84.19;99698.23;124837;1101;65185;-81
2020/12/02 08:28:52;;;;;;;82.13;45.27;;;;;;;-3.79;83.98;99697.36;124795;1101;65236;-81
2020/12/02 08:31:28;;;;;;;85.90;48.37;;;;;;;-3.76;83.95;99702.60;124847;1101;65517;-81
2020/12/02 08:34:18;;;;;;;85.20;46.60;;;;;;;-3.72;84.26;99699.13;124839;1102;65258;-81
2020/12/02 08:36:48;;;;;;;82.50;47.47;;;;;;;-3.70;83.76;99702.60;124773;1102;65651;-81
2020/12/02 08:39:30;;;;;;;85.90;48.53;;;;;;;-3.64;84.26;99693.92;124841;1102;65166;-80
2020/12/02 08:41:58;;;;;;;123.90;63.40;;;;;;;-3.54;83.45;99693.08;124817;1101;65195;-80
2020/12/02 08:44:24;;;;;;;113.15;61.25;;;;;;;-3.47;83.37;99697.44;124852;1101;65246;-80
2020/12/02 08:47:16;;;;;;;89.00;52.50;;;;;;;-3.37;83.51;99703.50;125412;1102;65242;-96
2020/12/02 08:49:42;;;;;;;106.20;60.03;;;;;;;-3.27;83.54;99702.64;125050;1102;65266;-91
2020/12/02 08:52:09;;;;;;;82.70;46.13;;;;;;;-3.20;82.63;99704.39;124973;1102;65136;-90
2020/12/02 08:54:36;;;;;;;84.83;47.53;;;;;;;-3.14;82.70;99693.09;124911;1101;65194;-89
2020/12/02 08:57:05;;;;;;;87.60;50.43;;;;;;;-3.01;83.25;99699.17;125032;1101;65159;-89
2020/12/02 08:59:34;;;;;;;81.60;51.43;;;;;;;-2.98;83.17;99696.55;124890;1102;65218;-89
2020/12/02 09:02:03;;;;;;;84.40;47.63;;;;;;;-2.91;83.10;99698.30;125097;1101;65137;-92
2020/12/02 09:04:30;;;;;;;80.77;47.00;;;;;;;-2.87;82.39;99697.40;124960;1101;65175;-90
2020/12/02 09:06:56;;;;;;;85.60;48.63;;;;;;;-2.90;81.86;99686.98;124938;1101;65310;-89
2020/12/02 09:09:23;;;;;;;75.70;47.83;;;;;;;-2.92;82.40;99687.00;125004;1101;65418;-92
2020/12/02 09:11:49;;;;;;;80.57;46.80;;;;;;;-2.93;82.05;99685.23;125054;1102;65140;-86
2020/12/02 09:14:16;;;;;;;79.47;48.97;;;;;;;-2.89;82.02;99683.52;124895;1101;65080;-82
2020/12/02 09:16:42;;;;;;;75.13;45.60;;;;;;;-2.84;82.34;99686.98;124751;1101;65156;-82
2020/12/02 09:19:13;;;;;;;77.03;44.70;;;;;;;-2.88;81.70;99678.28;124779;1102;65382;-82
2020/12/02 09:21:40;;;;;;;80.87;44.20;;;;;;;-2.82;82.33;99677.40;124791;1102;65140;-82
2020/12/02 09:24:07;;;;;;;73.00;42.83;;;;;;;-2.82;81.66;99679.14;124848;1101;65245;-85
2020/12/02 09:26:34;;;;;;;70.47;41.47;;;;;;;-2.82;81.88;99668.71;124844;1101;65137;-82
2020/12/02 09:29:05;;;;;;;66.60;39.67;;;;;;;-2.82;81.46;99669.58;125121;1101;65143;-82
2020/12/02 09:31:35;;;;;;;63.93;35.93;;;;;;;-2.87;81.00;99668.71;124890;1101;65299;-83
2020/12/02 09:34:03;;;;;;;61.33;37.27;;;;;;;-2.88;80.69;99670.45;124793;1101;65185;-84
2020/12/02 09:36:30;;;;;;;74.33;43.47;;;;;;;-2.90;81.24;99669.62;124852;1101;65595;-82
2020/12/02 09:38:56;;;;;;;62.17;38.40;;;;;;;-2.82;81.54;99674.79;124813;1101;65245;-82
2020/12/02 09:41:30;;;;;;;66.40;38.90;;;;;;;-2.79;81.14;99672.20;124808;1101;65162;-82
2020/12/02 09:44:18;;;;;;;63.10;40.30;;;;;;;-2.76;81.62;99666.97;124754;1101;65280;-83
2020/12/02 09:46:52;;;;;;;67.50;39.30;;;;;;;-2.72;81.21;99660.86;124627;1101;65200;-83
2020/12/02 09:49:21;;;;;;;67.47;40.33;;;;;;;-2.65;81.78;99665.20;124766;1101;65165;-83
2020/12/02 09:51:59;;;;;;;69.80;40.70;;;;;;;-2.61;80.92;99649.52;124809;1101;65108;-83
2020/12/02 09:54:28;;;;;;;66.90;42.50;;;;;;;-2.55;81.71;99637.34;124829;1101;65283;-82
2020/12/02 09:56:55;;;;;;;67.00;40.67;;;;;;;-2.52;80.85;99634.72;124823;1101;65314;-82
2020/12/02 09:59:21;;;;;;;65.97;39.17;;;;;;;-2.50;80.56;99635.59;124841;1101;65187;-83
2020/12/02 10:02:01;;;;;;;63.23;38.03;;;;;;;-2.48;80.01;99619.90;124766;1101;65237;-83
2020/12/02 10:04:47;;;;;;;63.90;39.33;;;;;;;-2.51;79.73;99617.31;124862;1101;65239;-83
2020/12/02 10:07:37;;;;;;;63.53;37.67;;;;;;;-2.60;79.59;99618.22;124896;1100;65242;-83
2020/12/02 10:10:17;;;;;;;;;;;;;;;-2.72;79.06;99626.94;124848;1103;65285;-83
2020/12/02 10:13:01;;;;;;;64.53;38.13;;;;;;;-2.89;79.75;99626.14;124845;1101;65225;-83
2020/12/02 10:16:07;;;;;;;56.77;36.80;;;;;;;-2.94;79.92;99633.11;124882;1101;65188;-83
2020/12/02 10:18:46;;;;;;;62.60;36.83;;;;;;;-3.03;79.84;99633.97;124693;1101;65098;-84
2020/12/02 10:21:22;;;;;;;60.12;37.63;;;;;;;-3.07;80.05;99634.86;124829;1101;65156;-82
2020/12/02 10:24:07;;;;;;;61.93;38.07;;;;;;;-3.04;79.85;99620.95;124759;1101;65266;-83
2020/12/02 10:27:02;;;;;;;63.15;39.75;;;;;;;-2.96;80.69;99624.41;124796;1101;65217;-83
2020/12/02 10:29:29;;;;;;;62.57;37.80;;;;;;;-2.92;79.93;99621.80;124793;1101;65169;-82
2020/12/02 10:32:23;;;;;;;58.10;37.90;;;;;;;-2.96;79.94;99617.45;124816;1101;65252;-83
2020/12/02 10:34:49;;;;;;;64.13;39.97;;;;;;;-2.91;80.40;99622.66;124770;1101;65156;-82
2020/12/02 10:37:34;;;;;;;72.20;44.60;;;;;;;-2.85;80.86;99612.20;124804;1101;65213;-84
2020/12/02 10:40:01;;;;;;;60.83;37.80;;;;;;;-2.80;80.28;99612.20;124832;1101;65251;-82
2020/12/02 10:42:30;;;;;;;60.90;37.27;;;;;;;-2.80;80.08;99612.20;124874;1101;65140;-83
2020/12/02 10:45:18;;;;;;;61.37;38.53;;;;;;;-2.75;79.96;99607.84;124862;1103;65214;-83
2020/12/02 10:48:06;;;;;;;75.70;47.27;;;;;;;-2.60;80.61;99604.31;124805;1101;65284;-83
2020/12/02 10:50:35;;;;;;;102.27;58.20;;;;;;;-2.49;80.93;99607.74;124828;1102;65306;-83
2020/12/02 10:53:07;;;;;;;124.10;73.37;;;;;;;-2.36;80.72;99609.42;124750;1101;65140;-83
2020/12/02 10:55:35;;;;;;;97.93;65.17;;;;;;;-2.23;80.07;99603.26;124840;1101;65248;-83
2020/12/02 10:58:28;;;;;;;66.93;43.20;;;;;;;-2.21;79.98;99601.52;124708;1102;65195;-84
2020/12/02 11:01:01;;;;;;;78.40;53.33;;;;;;;-2.11;80.08;99596.22;124886;1101;65185;-84
2020/12/02 11:03:32;;;;;;;74.75;47.35;;;;;;;-2.10;79.94;99597.97;124678;1103;65191;-84
2020/12/02 11:06:37;;;;;;;63.60;40.90;;;;;;;-2.06;79.51;99597.06;124786;1101;65597;-83
2020/12/02 11:09:09;;;;;;;66.33;41.80;;;;;;;-2.01;80.09;99593.54;124741;1102;65163;-82
2020/12/02 11:11:58;;;;;;;67.77;43.97;;;;;;;-1.91;79.10;99590.88;124816;1101;65158;-84
2020/12/02 11:14:58;;;;;;;63.30;41.05;;;;;;;-1.99;79.28;99593.55;124802;1101;65256;-84
2020/12/02 11:17:40;;;;;;;;;;;;;;;-2.06;79.08;99599.67;124858;1101;65166;-83
2020/12/02 11:20:16;;;;;;;64.45;37.45;;;;;;;-2.20;79.44;99594.54;124777;1101;65291;-83
2020/12/02 11:23:01;;;;;;;65.63;39.63;;;;;;;-2.25;79.77;99581.50;124852;1101;65265;-84
2020/12/02 11:25:45;;;;;;;65.65;41.05;;;;;;;-2.19;79.65;99574.52;124846;1101;65182;-85
2020/12/02 11:28:15;;;;;;;65.53;40.70;;;;;;;-2.18;79.20;99565.83;124753;1101;65131;-83
2020/12/02 11:30:44;;;;;;;;;;;;;;;-2.15;79.32;99564.05;124811;1101;65131;-82
2020/12/02 11:33:32;;;;;;;62.30;38.55;;;;;;;-2.12;79.34;99563.16;124910;1101;65140;-84